createdAt,value
2017-06-20T00:00:06.357Z,99.99
2017-06-20T00:00:19.835Z,99.99
2017-06-20T00:00:32.739Z,99.99
2017-06-20T00:00:46.450Z,99.99
2017-06-20T00:00:59.889Z,99.99
2017-06-20T00:01:12.851Z,99.99
2017-06-20T00:01:26.292Z,99.99
2017-06-20T00:01:39.731Z,99.99
2017-06-20T00:01:53.208Z,99.99
2017-06-20T00:02:05.583Z,99.99
2017-06-20T00:02:18.988Z,99.99
2017-06-20T00:02:32.427Z,99.99
2017-06-20T00:02:45.345Z,99.99
2017-06-20T00:02:58.797Z,99.99
2017-06-20T00:03:12.189Z,99.99
2017-06-20T00:03:25.572Z,99.99
2017-06-20T00:03:38.441Z,99.99
2017-06-20T00:03:51.890Z,99.99
2017-06-20T00:04:04.735Z,99.99
2017-06-20T00:04:18.187Z,99.99
2017-06-20T00:04:31.575Z,99.99
2017-06-20T00:04:43.958Z,99.99
2017-06-20T00:04:57.403Z,99.99
2017-06-20T00:05:10.226Z,99.99
2017-06-20T00:05:23.092Z,99.99
2017-06-20T00:05:35.992Z,99.99
2017-06-20T00:05:49.419Z,99.99
2017-06-20T00:06:02.896Z,99.99
2017-06-20T00:06:15.767Z,99.99
2017-06-20T00:06:29.165Z,99.99
2017-06-20T00:06:42.642Z,99.99
2017-06-20T00:06:55.568Z,99.99
2017-06-20T00:07:08.993Z,99.99
2017-06-20T00:07:22.362Z,99.99
2017-06-20T00:07:35.296Z,99.99
2017-06-20T00:07:48.182Z,99.99
2017-06-20T00:08:01.640Z,99.99
2017-06-20T00:08:14.541Z,99.99
2017-06-20T00:08:27.882Z,99.99
2017-06-20T00:08:40.285Z,99.99
2017-06-20T00:08:54.095Z,99.99
2017-06-20T00:09:07.516Z,99.99
2017-06-20T00:09:20.916Z,99.99
2017-06-20T00:09:33.785Z,99.99
2017-06-20T00:09:46.749Z,99.99
2017-06-20T00:09:59.655Z,99.99
2017-06-20T00:10:12.558Z,99.99
2017-06-20T00:10:26.022Z,99.99
2017-06-20T00:10:38.947Z,99.99
2017-06-20T00:10:51.427Z,99.99
2017-06-20T00:11:03.760Z,99.99
2017-06-20T00:11:17.223Z,99.99
2017-06-20T00:11:30.612Z,99.99
2017-06-20T00:11:43.517Z,99.99
2017-06-20T00:11:56.928Z,99.99
2017-06-20T00:12:10.316Z,99.99
2017-06-20T00:12:23.232Z,99.99
2017-06-20T00:12:36.190Z,99.99
2017-06-20T00:12:49.611Z,99.99
2017-06-20T00:13:03.009Z,99.99
2017-06-20T00:13:15.912Z,99.99
2017-06-20T00:13:29.416Z,99.99
2017-06-20T00:13:42.838Z,99.99
2017-06-20T00:13:56.320Z,99.99
2017-06-20T00:14:08.683Z,99.99
2017-06-20T00:14:22.089Z,99.99
2017-06-20T00:14:35.426Z,99.99
2017-06-20T00:14:48.859Z,99.99
2017-06-20T00:15:02.238Z,99.99
2017-06-20T00:15:15.661Z,99.99
2017-06-20T00:15:29.100Z,99.99
2017-06-20T00:15:42.065Z,99.99
2017-06-20T00:15:55.784Z,99.99
2017-06-20T00:16:08.657Z,99.99
2017-06-20T00:16:22.078Z,99.99
2017-06-20T00:16:35.500Z,99.99
2017-06-20T00:16:48.877Z,99.99
2017-06-20T00:17:02.273Z,99.99
2017-06-20T00:17:15.672Z,99.99
2017-06-20T00:17:29.070Z,99.99
2017-06-20T00:17:42.546Z,99.99
2017-06-20T00:17:55.495Z,99.99
2017-06-20T00:18:08.879Z,99.99
2017-06-20T00:18:22.294Z,99.99
2017-06-20T00:18:35.726Z,99.99
2017-06-20T00:18:49.175Z,99.99
2017-06-20T00:19:02.078Z,99.99
2017-06-20T00:19:14.993Z,99.99
2017-06-20T00:19:28.329Z,99.99
2017-06-20T00:19:41.745Z,99.99
2017-06-20T00:19:54.669Z,99.99
2017-06-20T00:20:09.531Z,99.99
2017-06-20T00:20:22.458Z,99.99
2017-06-20T00:20:35.955Z,99.99
2017-06-20T00:20:48.856Z,99.99
2017-06-20T00:21:01.745Z,99.99
2017-06-20T00:21:14.604Z,99.99
2017-06-20T00:21:27.495Z,99.99
2017-06-20T00:21:40.446Z,99.99
2017-06-20T00:21:53.811Z,99.99
2017-06-20T00:22:06.757Z,99.99
2017-06-20T00:22:19.658Z,99.99
2017-06-20T00:22:33.073Z,99.99
2017-06-20T00:22:46.498Z,99.99
2017-06-20T00:22:59.409Z,99.99
2017-06-20T00:23:12.863Z,99.99
2017-06-20T00:23:26.227Z,99.99
2017-06-20T00:23:39.622Z,99.99
2017-06-20T00:23:53.016Z,99.99
2017-06-20T00:24:06.431Z,99.99
2017-06-20T00:24:19.817Z,99.99
2017-06-20T00:24:32.704Z,99.99
2017-06-20T00:24:46.168Z,99.99
2017-06-20T00:24:59.558Z,99.99
2017-06-20T00:25:12.440Z,99.99
2017-06-20T00:25:25.354Z,99.99
2017-06-20T00:25:38.815Z,99.99
2017-06-20T00:25:52.243Z,99.99
2017-06-20T00:26:05.613Z,99.99
2017-06-20T00:26:19.034Z,99.99
2017-06-20T00:26:31.397Z,99.99
2017-06-20T00:26:44.796Z,99.99
2017-06-20T00:26:58.136Z,99.99
2017-06-20T00:27:11.562Z,99.99
2017-06-20T00:27:24.946Z,99.99
2017-06-20T00:27:37.848Z,99.99
2017-06-20T00:27:51.266Z,99.99
2017-06-20T00:28:04.671Z,99.99
2017-06-20T00:28:17.542Z,99.99
2017-06-20T00:28:29.893Z,99.99
2017-06-20T00:28:42.766Z,99.99
2017-06-20T00:28:56.169Z,99.99
2017-06-20T00:29:09.548Z,99.99
2017-06-20T00:29:23.001Z,99.99
2017-06-20T00:29:35.913Z,99.99
2017-06-20T00:29:48.835Z,99.99
2017-06-20T00:30:02.290Z,99.99
2017-06-20T00:30:15.212Z,99.99
2017-06-20T00:30:28.696Z,99.99
2017-06-20T00:30:41.606Z,99.99
2017-06-20T00:30:55.038Z,99.99
2017-06-20T00:31:08.740Z,99.99
2017-06-20T00:31:22.111Z,99.99
2017-06-20T00:31:35.562Z,99.99
2017-06-20T00:31:48.998Z,99.99
2017-06-20T00:32:02.405Z,99.99
2017-06-20T00:32:15.897Z,99.99
2017-06-20T00:32:29.398Z,99.99
2017-06-20T00:32:42.798Z,99.99
2017-06-20T00:32:56.205Z,99.99
2017-06-20T00:33:09.625Z,99.99
2017-06-20T00:33:23.005Z,99.99
2017-06-20T00:33:35.921Z,99.99
2017-06-20T00:33:49.353Z,99.99
2017-06-20T00:34:02.268Z,99.99
2017-06-20T00:34:15.645Z,99.99
2017-06-20T00:34:29.097Z,99.99
2017-06-20T00:34:41.980Z,99.99
2017-06-20T00:34:55.391Z,99.99
2017-06-20T00:35:08.846Z,99.99
2017-06-20T00:35:22.234Z,99.99
2017-06-20T00:35:35.681Z,99.99
2017-06-20T00:35:49.125Z,99.99
2017-06-20T00:36:02.478Z,99.99
2017-06-20T00:36:15.445Z,99.99
2017-06-20T00:36:28.898Z,99.99
2017-06-20T00:36:41.326Z,99.99
2017-06-20T00:36:54.765Z,99.99
2017-06-20T00:37:07.659Z,99.99
2017-06-20T00:37:21.097Z,99.99
2017-06-20T00:37:34.576Z,99.99
2017-06-20T00:37:48.012Z,99.99
2017-06-20T00:38:01.416Z,99.99
2017-06-20T00:38:14.895Z,99.99
2017-06-20T00:38:28.339Z,99.99
2017-06-20T00:38:41.254Z,99.99
2017-06-20T00:38:54.696Z,99.99
2017-06-20T00:39:07.605Z,99.99
2017-06-20T00:39:21.064Z,99.99
2017-06-20T00:39:34.007Z,99.99
2017-06-20T00:39:47.381Z,99.99
2017-06-20T00:40:00.337Z,99.99
2017-06-20T00:40:13.715Z,99.99
2017-06-20T00:40:27.130Z,99.99
2017-06-20T00:40:39.985Z,99.99
2017-06-20T00:40:53.402Z,99.99
2017-06-20T00:41:06.267Z,99.99
2017-06-20T00:41:19.722Z,99.99
2017-06-20T00:41:32.588Z,99.99
2017-06-20T00:41:46.035Z,99.99
2017-06-20T00:41:59.519Z,99.99
2017-06-20T00:42:12.929Z,99.99
2017-06-20T00:42:25.807Z,99.99
2017-06-20T00:42:38.718Z,99.99
2017-06-20T00:42:52.143Z,99.99
2017-06-20T00:43:05.557Z,99.99
2017-06-20T00:43:19.049Z,99.99
2017-06-20T00:43:32.473Z,99.99
2017-06-20T00:43:45.388Z,99.99
2017-06-20T00:43:58.780Z,99.99
2017-06-20T00:44:12.167Z,99.99
2017-06-20T00:44:25.571Z,99.99
2017-06-20T00:44:38.532Z,99.99
2017-06-20T00:44:51.358Z,99.99
2017-06-20T00:45:04.780Z,99.99
2017-06-20T00:45:18.234Z,99.99
2017-06-20T00:45:31.680Z,99.99
2017-06-20T00:45:44.637Z,99.99
2017-06-20T00:45:57.572Z,99.99
2017-06-20T00:46:11.081Z,99.99
2017-06-20T00:46:23.404Z,99.99
2017-06-20T00:46:36.276Z,99.99
2017-06-20T00:46:48.607Z,99.99
2017-06-20T00:47:02.019Z,99.99
2017-06-20T00:47:15.539Z,99.99
2017-06-20T00:47:28.989Z,99.99
2017-06-20T00:47:42.439Z,99.99
2017-06-20T00:47:55.890Z,99.99
2017-06-20T00:48:09.342Z,99.99
2017-06-20T00:48:22.722Z,99.99
2017-06-20T00:48:35.715Z,99.99
2017-06-20T00:48:48.646Z,99.99
2017-06-20T00:49:01.067Z,99.99
2017-06-20T00:49:14.485Z,99.99
2017-06-20T00:49:27.889Z,99.99
2017-06-20T00:49:40.768Z,99.99
2017-06-20T00:49:53.652Z,99.99
2017-06-20T00:50:06.585Z,99.99
2017-06-20T00:50:20.078Z,99.99
2017-06-20T00:50:33.508Z,99.99
2017-06-20T00:50:46.480Z,99.99
2017-06-20T00:50:59.890Z,99.99
2017-06-20T00:51:12.730Z,99.99
2017-06-20T00:51:26.189Z,99.99
2017-06-20T00:51:39.594Z,99.99
2017-06-20T00:51:52.463Z,99.99
2017-06-20T00:52:05.866Z,99.99
2017-06-20T00:52:19.308Z,99.99
2017-06-20T00:52:32.808Z,99.99
2017-06-20T00:52:46.274Z,99.99
2017-06-20T00:52:59.798Z,99.99
2017-06-20T00:53:13.264Z,99.99
2017-06-20T00:53:26.682Z,99.99
2017-06-20T00:53:39.124Z,99.99
2017-06-20T00:53:52.596Z,99.99
2017-06-20T00:54:06.025Z,99.99
2017-06-20T00:54:19.498Z,99.99
2017-06-20T00:54:32.873Z,99.99
2017-06-20T00:54:46.308Z,99.99
2017-06-20T00:54:59.188Z,99.99
2017-06-20T00:55:12.059Z,99.99
2017-06-20T00:55:25.486Z,99.99
2017-06-20T00:55:38.916Z,99.99
2017-06-20T00:55:52.366Z,99.99
2017-06-20T00:56:05.347Z,99.99
2017-06-20T00:56:18.277Z,99.99
2017-06-20T00:56:31.760Z,99.99
2017-06-20T00:56:45.234Z,99.99
2017-06-20T00:56:58.718Z,99.99
2017-06-20T00:57:11.099Z,99.99
2017-06-20T00:57:24.525Z,99.99
2017-06-20T00:57:37.427Z,99.99
2017-06-20T00:57:50.867Z,99.99
2017-06-20T00:58:04.331Z,99.99
2017-06-20T00:58:17.751Z,99.99
2017-06-20T00:58:30.738Z,99.99
2017-06-20T00:58:44.158Z,99.99
2017-06-20T00:58:57.583Z,99.99
2017-06-20T00:59:10.986Z,99.99
2017-06-20T00:59:23.866Z,99.99
2017-06-20T00:59:37.343Z,99.99
2017-06-20T00:59:50.287Z,99.99
2017-06-20T01:00:03.183Z,99.99
2017-06-20T01:00:16.027Z,99.99
2017-06-20T01:00:29.477Z,99.99
2017-06-20T01:00:42.897Z,99.99
2017-06-20T01:00:55.731Z,99.99
2017-06-20T01:01:08.603Z,99.99
2017-06-20T01:01:22.332Z,99.99
2017-06-20T01:01:35.737Z,99.99
2017-06-20T01:01:48.692Z,99.99
2017-06-20T01:02:01.075Z,99.99
2017-06-20T01:02:14.475Z,99.99
2017-06-20T01:02:27.404Z,99.99
2017-06-20T01:02:40.263Z,99.99
2017-06-20T01:02:53.194Z,99.99
2017-06-20T01:03:06.594Z,99.99
2017-06-20T01:03:20.224Z,99.99
2017-06-20T01:03:33.117Z,99.99
2017-06-20T01:03:45.986Z,99.99
2017-06-20T01:03:58.840Z,99.99
2017-06-20T01:04:12.272Z,99.99
2017-06-20T01:04:25.681Z,99.99
2017-06-20T01:04:38.578Z,99.99
2017-06-20T01:04:52.056Z,99.99
2017-06-20T01:05:05.450Z,99.99
2017-06-20T01:05:18.923Z,99.99
2017-06-20T01:05:32.371Z,99.99
2017-06-20T01:05:45.806Z,99.99
2017-06-20T01:05:59.288Z,99.99
2017-06-20T01:06:12.675Z,99.99
2017-06-20T01:06:25.074Z,99.99
2017-06-20T01:06:37.447Z,99.99
2017-06-20T01:06:50.893Z,99.99
2017-06-20T01:07:04.347Z,99.99
2017-06-20T01:07:17.790Z,99.99
2017-06-20T01:07:31.149Z,99.99
2017-06-20T01:07:44.604Z,99.99
2017-06-20T01:07:58.017Z,99.99
2017-06-20T01:08:11.466Z,99.99
2017-06-20T01:08:24.919Z,99.99
2017-06-20T01:08:37.860Z,99.99
2017-06-20T01:08:51.289Z,99.99
2017-06-20T01:09:04.148Z,99.99
2017-06-20T01:09:17.025Z,99.99
2017-06-20T01:09:29.939Z,99.99
2017-06-20T01:09:43.411Z,99.99
2017-06-20T01:09:56.356Z,99.99
2017-06-20T01:10:09.231Z,99.99
2017-06-20T01:10:22.674Z,99.99
2017-06-20T01:10:36.094Z,99.99
2017-06-20T01:10:49.008Z,99.99
2017-06-20T01:11:01.888Z,99.99
2017-06-20T01:11:15.310Z,99.99
2017-06-20T01:11:28.692Z,99.99
2017-06-20T01:11:42.089Z,99.99
2017-06-20T01:11:55.552Z,99.99
2017-06-20T01:12:08.952Z,99.99
2017-06-20T01:12:22.337Z,99.99
2017-06-20T01:12:35.970Z,99.99
2017-06-20T01:12:48.821Z,99.99
2017-06-20T01:13:01.738Z,99.99
2017-06-20T01:13:15.100Z,99.99
2017-06-20T01:13:28.211Z,99.99
2017-06-20T01:13:41.641Z,99.99
2017-06-20T01:13:55.042Z,99.99
2017-06-20T01:14:07.415Z,99.99
2017-06-20T01:14:20.238Z,99.99
2017-06-20T01:14:32.104Z,99.99
2017-06-20T01:14:45.000Z,99.99
2017-06-20T01:14:58.439Z,99.99
2017-06-20T01:15:11.851Z,99.99
2017-06-20T01:15:25.277Z,99.99
2017-06-20T01:15:37.632Z,99.99
2017-06-20T01:15:51.055Z,99.99
2017-06-20T01:16:04.465Z,99.99
2017-06-20T01:16:17.603Z,99.99
2017-06-20T01:16:31.063Z,99.99
2017-06-20T01:16:43.923Z,99.99
2017-06-20T01:16:57.371Z,99.99
2017-06-20T01:17:10.209Z,99.99
2017-06-20T01:17:23.609Z,99.99
2017-06-20T01:17:35.972Z,99.99
2017-06-20T01:17:48.878Z,99.99
2017-06-20T01:18:01.782Z,99.99
2017-06-20T01:18:15.423Z,99.99
2017-06-20T01:18:28.343Z,99.99
2017-06-20T01:18:40.749Z,99.99
2017-06-20T01:18:54.241Z,99.99
2017-06-20T01:19:06.565Z,99.99
2017-06-20T01:19:19.932Z,99.99
2017-06-20T01:19:33.331Z,99.99
2017-06-20T01:19:46.726Z,99.99
2017-06-20T01:19:59.670Z,99.99
2017-06-20T01:20:13.112Z,99.99
2017-06-20T01:20:26.538Z,99.99
2017-06-20T01:20:40.034Z,99.99
2017-06-20T01:20:53.426Z,99.99
2017-06-20T01:21:05.796Z,99.99
2017-06-20T01:21:18.198Z,99.99
2017-06-20T01:21:31.053Z,99.99
2017-06-20T01:21:44.443Z,99.99
2017-06-20T01:21:57.837Z,99.99
2017-06-20T01:22:11.268Z,99.99
2017-06-20T01:22:24.684Z,99.99
2017-06-20T01:22:38.131Z,99.99
2017-06-20T01:22:51.006Z,99.99
2017-06-20T01:23:03.941Z,99.99
2017-06-20T01:23:16.886Z,99.99
2017-06-20T01:23:29.818Z,99.99
2017-06-20T01:23:42.691Z,99.99
2017-06-20T01:23:55.576Z,99.99
2017-06-20T01:24:08.512Z,99.99
2017-06-20T01:24:21.913Z,99.99
2017-06-20T01:24:34.772Z,99.99
2017-06-20T01:24:48.175Z,99.99
2017-06-20T01:25:01.628Z,99.99
2017-06-20T01:25:15.075Z,99.99
2017-06-20T01:25:28.508Z,99.99
2017-06-20T01:25:41.907Z,99.99
2017-06-20T01:25:55.336Z,99.99
2017-06-20T01:26:08.729Z,99.99
2017-06-20T01:26:22.185Z,99.99
2017-06-20T01:26:35.585Z,99.99
2017-06-20T01:26:48.490Z,99.99
2017-06-20T01:27:01.903Z,99.99
2017-06-20T01:27:15.326Z,99.99
2017-06-20T01:27:28.730Z,99.99
2017-06-20T01:27:42.167Z,99.99
2017-06-20T01:27:55.618Z,99.99
2017-06-20T01:28:08.495Z,99.99
2017-06-20T01:28:21.397Z,99.99
2017-06-20T01:28:34.763Z,99.99
2017-06-20T01:28:47.639Z,99.99
2017-06-20T01:29:00.557Z,99.99
2017-06-20T01:29:14.000Z,99.99
2017-06-20T01:29:26.908Z,99.99
2017-06-20T01:29:40.313Z,99.99
2017-06-20T01:29:53.696Z,99.99
2017-06-20T01:30:06.065Z,99.99
2017-06-20T01:30:19.470Z,99.99
2017-06-20T01:30:32.970Z,99.99
2017-06-20T01:30:44.809Z,99.99
2017-06-20T01:30:58.242Z,99.99
2017-06-20T01:31:11.637Z,99.99
2017-06-20T01:31:24.796Z,99.99
2017-06-20T01:31:37.755Z,99.99
2017-06-20T01:31:51.203Z,99.99
2017-06-20T01:32:04.087Z,99.99
2017-06-20T01:32:17.569Z,99.99
2017-06-20T01:32:31.017Z,99.99
2017-06-20T01:32:43.883Z,99.99
2017-06-20T01:32:57.262Z,99.99
2017-06-20T01:33:10.656Z,99.99
2017-06-20T01:33:24.050Z,99.99
2017-06-20T01:33:37.446Z,99.99
2017-06-20T01:33:50.938Z,99.99
2017-06-20T01:34:03.770Z,99.77
2017-06-20T01:34:17.191Z,99.77
2017-06-20T01:34:30.626Z,99.99
2017-06-20T01:34:44.113Z,99.96
2017-06-20T01:34:57.514Z,99.99
2017-06-20T01:35:10.417Z,99.99
2017-06-20T01:35:23.884Z,99.99
2017-06-20T01:35:36.770Z,99.99
2017-06-20T01:35:49.691Z,99.87
2017-06-20T01:36:02.564Z,99.96
2017-06-20T01:36:15.502Z,99.99
2017-06-20T01:36:29.152Z,99.87
2017-06-20T01:36:42.615Z,99.99
2017-06-20T01:36:55.507Z,99.96
2017-06-20T01:37:08.924Z,99.99
2017-06-20T01:37:22.316Z,99.96
2017-06-20T01:37:35.747Z,99.96
2017-06-20T01:37:49.169Z,99.87
2017-06-20T01:38:02.579Z,99.87
2017-06-20T01:38:15.971Z,99.77
2017-06-20T01:38:29.345Z,99.87
2017-06-20T01:38:42.314Z,99.96
2017-06-20T01:38:55.770Z,99.77
2017-06-20T01:39:08.699Z,99.96
2017-06-20T01:39:22.066Z,99.87
2017-06-20T01:39:35.489Z,99.96
2017-06-20T01:39:48.925Z,99.87
2017-06-20T01:40:01.811Z,99.99
2017-06-20T01:40:15.262Z,99.87
2017-06-20T01:40:28.645Z,99.58
2017-06-20T01:40:42.080Z,99.58
2017-06-20T01:40:55.551Z,99.87
2017-06-20T01:41:09.223Z,99.87
2017-06-20T01:41:22.676Z,99.77
2017-06-20T01:41:35.558Z,99.77
2017-06-20T01:41:48.453Z,99.68
2017-06-20T01:42:02.064Z,99.77
2017-06-20T01:42:15.510Z,99.99
2017-06-20T01:42:28.944Z,99.96
2017-06-20T01:42:41.849Z,99.77
2017-06-20T01:42:55.260Z,99.77
2017-06-20T01:43:08.652Z,99.96
2017-06-20T01:43:21.557Z,99.87
2017-06-20T01:43:34.997Z,99.87
2017-06-20T01:43:48.402Z,99.77
2017-06-20T01:44:01.844Z,99.77
2017-06-20T01:44:15.232Z,99.77
2017-06-20T01:44:28.114Z,99.58
2017-06-20T01:44:41.508Z,99.48
2017-06-20T01:44:54.350Z,99.29
2017-06-20T01:45:07.243Z,99.58
2017-06-20T01:45:20.225Z,99.68
2017-06-20T01:45:33.681Z,99.87
2017-06-20T01:45:47.148Z,99.48
2017-06-20T01:46:00.046Z,99.68
2017-06-20T01:46:13.453Z,99.96
2017-06-20T01:46:25.858Z,99.58
2017-06-20T01:46:39.523Z,99.58
2017-06-20T01:46:52.846Z,99.87
2017-06-20T01:47:06.249Z,99.87
2017-06-20T01:47:19.651Z,99.48
2017-06-20T01:47:33.081Z,99.58
2017-06-20T01:47:46.495Z,99.48
2017-06-20T01:47:59.936Z,99.96
2017-06-20T01:48:13.310Z,99.58
2017-06-20T01:48:26.207Z,99.39
2017-06-20T01:48:39.605Z,99.48
2017-06-20T01:48:52.468Z,99.58
2017-06-20T01:49:05.916Z,99.96
2017-06-20T01:49:18.814Z,99.1
2017-06-20T01:49:31.663Z,99.01
2017-06-20T01:49:45.083Z,99.58
2017-06-20T01:49:58.516Z,99.58
2017-06-20T01:50:11.923Z,99.1
2017-06-20T01:50:25.331Z,99.39
2017-06-20T01:50:38.756Z,98.91
2017-06-20T01:50:51.690Z,99.29
2017-06-20T01:51:05.103Z,99.39
2017-06-20T01:51:18.509Z,99.58
2017-06-20T01:51:31.954Z,99.39
2017-06-20T01:51:44.321Z,99.1
2017-06-20T01:51:57.709Z,99.01
2017-06-20T01:52:10.650Z,99.19
2017-06-20T01:52:23.505Z,99.48
2017-06-20T01:52:36.949Z,99.19
2017-06-20T01:52:49.814Z,99.19
2017-06-20T01:53:03.239Z,99.39
2017-06-20T01:53:15.597Z,99.29
2017-06-20T01:53:28.533Z,99.68
2017-06-20T01:53:41.935Z,99.39
2017-06-20T01:53:55.276Z,99.48
2017-06-20T01:54:08.184Z,99.19
2017-06-20T01:54:21.636Z,99.39
2017-06-20T01:54:35.094Z,99.29
2017-06-20T01:54:48.533Z,99.19
2017-06-20T01:55:01.414Z,99.15
2017-06-20T01:55:14.898Z,99.68
2017-06-20T01:55:28.315Z,99.58
2017-06-20T01:55:41.717Z,99.48
2017-06-20T01:55:54.584Z,99.39
2017-06-20T01:56:08.048Z,99.19
2017-06-20T01:56:21.453Z,99.39
2017-06-20T01:56:34.955Z,99.19
2017-06-20T01:56:48.407Z,99.39
2017-06-20T01:57:01.872Z,99.68
2017-06-20T01:57:15.254Z,99.39
2017-06-20T01:57:28.199Z,99.68
2017-06-20T01:57:41.673Z,99.58
2017-06-20T01:57:55.099Z,99.29
2017-06-20T01:58:08.561Z,99.29
2017-06-20T01:58:21.506Z,99.29
2017-06-20T01:58:34.946Z,98.81
2017-06-20T01:58:47.820Z,99.05
2017-06-20T01:59:01.232Z,99.1
2017-06-20T01:59:14.154Z,99.15
2017-06-20T01:59:27.632Z,99.01
2017-06-20T01:59:39.981Z,99.01
2017-06-20T01:59:53.439Z,99.01
2017-06-20T02:00:06.870Z,99.05
2017-06-20T02:00:20.259Z,99.19
2017-06-20T02:00:33.650Z,99.15
2017-06-20T02:00:46.814Z,99.24
2017-06-20T02:01:00.261Z,99.15
2017-06-20T02:01:13.208Z,99.24
2017-06-20T02:01:25.575Z,98.81
2017-06-20T02:01:39.004Z,99.29
2017-06-20T02:01:52.430Z,99.19
2017-06-20T02:02:05.840Z,98.72
2017-06-20T02:02:18.213Z,98.67
2017-06-20T02:02:31.643Z,99.1
2017-06-20T02:02:45.064Z,98.76
2017-06-20T02:02:58.481Z,98.86
2017-06-20T02:03:11.934Z,98.72
2017-06-20T02:03:25.368Z,99.05
2017-06-20T02:03:38.298Z,99.05
2017-06-20T02:03:51.721Z,99.24
2017-06-20T02:04:04.601Z,98.67
2017-06-20T02:04:18.001Z,99.1
2017-06-20T02:04:31.384Z,98.28
2017-06-20T02:04:44.818Z,98.38
2017-06-20T02:04:57.765Z,98.47
2017-06-20T02:05:11.210Z,98.38
2017-06-20T02:05:24.644Z,98.28
2017-06-20T02:05:38.070Z,98.47
2017-06-20T02:05:51.516Z,98.47
2017-06-20T02:06:05.000Z,98.1
2017-06-20T02:06:18.473Z,98.19
2017-06-20T02:06:31.385Z,98.47
2017-06-20T02:06:44.273Z,98.19
2017-06-20T02:06:57.720Z,98.47
2017-06-20T02:07:11.165Z,98.38
2017-06-20T02:07:24.554Z,97.71
2017-06-20T02:07:36.952Z,97.95
2017-06-20T02:07:49.877Z,98.1
2017-06-20T02:08:03.303Z,97.71
2017-06-20T02:08:16.233Z,98
2017-06-20T02:08:29.659Z,98.19
2017-06-20T02:08:43.010Z,98.19
2017-06-20T02:08:56.374Z,98.38
2017-06-20T02:09:09.774Z,98.1
2017-06-20T02:09:23.159Z,98.19
2017-06-20T02:09:36.047Z,98.1
2017-06-20T02:09:49.448Z,98.1
2017-06-20T02:10:02.871Z,97.8
2017-06-20T02:10:15.837Z,97.8
2017-06-20T02:10:29.277Z,98
2017-06-20T02:10:42.780Z,98
2017-06-20T02:10:56.202Z,98.1
2017-06-20T02:11:09.120Z,97.61
2017-06-20T02:11:22.543Z,97.9
2017-06-20T02:11:35.938Z,97.8
2017-06-20T02:11:48.814Z,97.8
2017-06-20T02:12:01.731Z,97.33
2017-06-20T02:12:14.630Z,97.42
2017-06-20T02:12:28.048Z,97.52
2017-06-20T02:12:41.467Z,97.52
2017-06-20T02:12:54.325Z,97.52
2017-06-20T02:13:07.786Z,97.52
2017-06-20T02:13:21.193Z,97.52
2017-06-20T02:13:34.622Z,97.71
2017-06-20T02:13:47.999Z,97.23
2017-06-20T02:14:00.397Z,97.33
2017-06-20T02:14:13.258Z,97.33
2017-06-20T02:14:26.756Z,97.23
2017-06-20T02:14:39.662Z,97.61
2017-06-20T02:14:53.088Z,97.14
2017-06-20T02:15:05.455Z,97.33
2017-06-20T02:15:18.380Z,97.23
2017-06-20T02:15:31.790Z,97.33
2017-06-20T02:15:44.663Z,97.52
2017-06-20T02:15:58.103Z,97.04
2017-06-20T02:16:11.018Z,97.52
2017-06-20T02:16:24.370Z,96.94
2017-06-20T02:16:37.203Z,97.14
2017-06-20T02:16:50.916Z,97.23
2017-06-20T02:17:03.311Z,97.04
2017-06-20T02:17:16.217Z,97.14
2017-06-20T02:17:29.708Z,97.04
2017-06-20T02:17:43.159Z,96.94
2017-06-20T02:17:56.534Z,96.75
2017-06-20T02:18:09.372Z,97.14
2017-06-20T02:18:22.742Z,96.66
2017-06-20T02:18:36.167Z,96.56
2017-06-20T02:18:49.566Z,96.56
2017-06-20T02:19:02.485Z,96.37
2017-06-20T02:19:15.417Z,96.08
2017-06-20T02:19:28.831Z,96.37
2017-06-20T02:19:42.214Z,96.56
2017-06-20T02:19:55.610Z,96.18
2017-06-20T02:20:07.982Z,96.47
2017-06-20T02:20:21.421Z,96.56
2017-06-20T02:20:33.734Z,96.47
2017-06-20T02:20:47.197Z,96.37
2017-06-20T02:20:59.666Z,95.98
2017-06-20T02:21:13.075Z,95.89
2017-06-20T02:21:26.467Z,95.98
2017-06-20T02:21:38.501Z,95.89
2017-06-20T02:21:51.947Z,96.08
2017-06-20T02:22:04.818Z,96.08
2017-06-20T02:22:18.197Z,96.08
2017-06-20T02:22:31.099Z,96.08
2017-06-20T02:22:44.536Z,95.79
2017-06-20T02:22:57.978Z,95.6
2017-06-20T02:23:11.437Z,95.51
2017-06-20T02:23:24.889Z,95.41
2017-06-20T02:23:38.288Z,95.41
2017-06-20T02:23:51.672Z,95.31
2017-06-20T02:24:05.055Z,95.51
2017-06-20T02:24:18.548Z,95.7
2017-06-20T02:24:32.008Z,95.41
2017-06-20T02:24:45.390Z,95.7
2017-06-20T02:24:58.870Z,95.03
2017-06-20T02:25:12.278Z,95.12
2017-06-20T02:25:25.687Z,94.93
2017-06-20T02:25:38.619Z,95.03
2017-06-20T02:25:52.048Z,95.03
2017-06-20T02:26:05.487Z,95.03
2017-06-20T02:26:18.397Z,95.03
2017-06-20T02:26:31.775Z,95.03
2017-06-20T02:26:45.187Z,94.74
2017-06-20T02:26:58.607Z,94.84
2017-06-20T02:27:12.038Z,94.74
2017-06-20T02:27:25.452Z,95.03
2017-06-20T02:27:38.811Z,94.84
2017-06-20T02:27:52.253Z,94.93
2017-06-20T02:28:05.684Z,94.84
2017-06-20T02:28:18.588Z,94.93
2017-06-20T02:28:32.001Z,94.74
2017-06-20T02:28:45.490Z,94.84
2017-06-20T02:28:58.886Z,94.84
2017-06-20T02:29:12.302Z,95.12
2017-06-20T02:29:25.678Z,94.93
2017-06-20T02:29:39.105Z,95.03
2017-06-20T02:29:52.544Z,94.84
2017-06-20T02:30:05.956Z,95.12
2017-06-20T02:30:19.454Z,94.84
2017-06-20T02:30:32.894Z,95.12
2017-06-20T02:30:46.467Z,95.31
2017-06-20T02:30:58.825Z,95.03
2017-06-20T02:31:12.263Z,95.03
2017-06-20T02:31:25.664Z,95.03
2017-06-20T02:31:38.537Z,95.22
2017-06-20T02:31:52.188Z,95.22
2017-06-20T02:32:05.579Z,94.84
2017-06-20T02:32:19.013Z,94.93
2017-06-20T02:32:32.431Z,94.93
2017-06-20T02:32:45.273Z,94.55
2017-06-20T02:32:58.681Z,94.74
2017-06-20T02:33:12.106Z,94.84
2017-06-20T02:33:25.038Z,94.93
2017-06-20T02:33:38.491Z,94.55
2017-06-20T02:33:51.878Z,94.55
2017-06-20T02:34:04.779Z,94.74
2017-06-20T02:34:17.712Z,94.64
2017-06-20T02:34:30.057Z,94.45
2017-06-20T02:34:43.481Z,94.64
2017-06-20T02:34:56.906Z,94.55
2017-06-20T02:35:10.357Z,94.74
2017-06-20T02:35:23.852Z,94.26
2017-06-20T02:35:36.764Z,94.55
2017-06-20T02:35:50.195Z,94.26
2017-06-20T02:36:03.600Z,94.17
2017-06-20T02:36:16.524Z,94.55
2017-06-20T02:36:29.376Z,94.07
2017-06-20T02:36:42.841Z,94.17
2017-06-20T02:36:55.723Z,94.26
2017-06-20T02:37:08.632Z,93.98
2017-06-20T02:37:22.067Z,93.78
2017-06-20T02:37:35.556Z,93.98
2017-06-20T02:37:49.010Z,94.17
2017-06-20T02:38:01.868Z,93.98
2017-06-20T02:38:15.244Z,94.17
2017-06-20T02:38:28.685Z,93.98
2017-06-20T02:38:42.089Z,93.88
2017-06-20T02:38:54.455Z,93.78
2017-06-20T02:39:07.876Z,93.98
2017-06-20T02:39:20.845Z,93.69
2017-06-20T02:39:34.194Z,93.59
2017-06-20T02:39:47.646Z,93.3
2017-06-20T02:40:01.079Z,93.4
2017-06-20T02:40:14.465Z,93.4
2017-06-20T02:40:27.403Z,93.4
2017-06-20T02:40:40.391Z,93.4
2017-06-20T02:40:53.730Z,93.4
2017-06-20T02:41:07.197Z,92.97
2017-06-20T02:41:20.681Z,93.4
2017-06-20T02:41:33.051Z,93.4
2017-06-20T02:41:46.482Z,93.21
2017-06-20T02:41:59.877Z,93.3
2017-06-20T02:42:13.312Z,93.4
2017-06-20T02:42:26.763Z,93.49
2017-06-20T02:42:40.174Z,93.59
2017-06-20T02:42:53.617Z,93.49
2017-06-20T02:43:07.116Z,92.92
2017-06-20T02:43:20.508Z,92.92
2017-06-20T02:43:32.280Z,92.92
2017-06-20T02:43:45.692Z,92.82
2017-06-20T02:43:58.560Z,92.54
2017-06-20T02:44:11.975Z,92.44
2017-06-20T02:44:25.399Z,92.25
2017-06-20T02:44:38.803Z,92.35
2017-06-20T02:44:52.220Z,92.44
2017-06-20T02:45:05.135Z,92.35
2017-06-20T02:45:18.548Z,92.25
2017-06-20T02:45:32.017Z,92.15
2017-06-20T02:45:45.476Z,92.25
2017-06-20T02:45:58.898Z,92.11
2017-06-20T02:46:11.799Z,92.15
2017-06-20T02:46:25.233Z,91.86
2017-06-20T02:46:38.632Z,91.96
2017-06-20T02:46:52.148Z,91.82
2017-06-20T02:47:05.804Z,91.86
2017-06-20T02:47:19.298Z,91.96
2017-06-20T02:47:32.758Z,91.67
2017-06-20T02:47:46.132Z,91.77
2017-06-20T02:47:59.070Z,91.77
2017-06-20T02:48:12.491Z,91.58
2017-06-20T02:48:25.852Z,91.29
2017-06-20T02:48:39.257Z,91.44
2017-06-20T02:48:52.656Z,91.29
2017-06-20T02:49:06.077Z,91.25
2017-06-20T02:49:19.473Z,90.96
2017-06-20T02:49:32.972Z,91.1
2017-06-20T02:49:46.360Z,91.05
2017-06-20T02:49:59.236Z,90.81
2017-06-20T02:50:12.711Z,90.81
2017-06-20T02:50:26.344Z,90.43